Time;durP1;ratioP1;P1;durP2;ratioP2;P2;SDS_P1;SDS_P2;PMS_P1;PMS_P2;Temp;Humidity;BMP_temperature;BMP_pressure;BME280_temperature;BME280_humidity;BME280_pressure;Samples;Min_cycle;Max_cycle;Signal;HPM_P1;HPM_P2
2023/05/13 00:03:58;;;;;;;;;;;;;;;20.02;46.59;95495.00;10241278;28;1992;-68
2023/05/13 00:08:59;;;;;;;;;;;;;;;20.00;46.26;95492.66;10241380;28;2114;-68
2023/05/13 00:13:59;;;;;;;;;;;;;;;20.01;46.42;95490.81;10239742;28;1871;-68
2023/05/13 00:18:59;;;;;;;;;;;;;;;20.01;46.36;95498.72;10244587;28;1906;-67
2023/05/13 00:24:00;;;;;;;;;;;;;;;19.99;46.07;95498.22;10245084;28;2146;-68
2023/05/13 00:29:00;;;;;;;;;;;;;;;20.00;46.30;95505.81;10241482;28;2009;-68
2023/05/13 00:34:00;;;;;;;;;;;;;;;19.97;46.10;95503.72;10235201;28;5117;-68
2023/05/13 00:39:00;;;;;;;;;;;;;;;19.97;46.31;95502.97;10234708;28;2012;-68
2023/05/13 00:44:01;;;;;;;;;;;;;;;19.97;46.07;95506.34;10239973;28;1990;-68
2023/05/13 00:49:01;;;;;;;;;;;;;;;19.97;46.14;95508.22;10237542;28;1968;-68
2023/05/13 00:54:01;;;;;;;;;;;;;;;19.96;46.23;95506.63;10243435;28;1989;-68
2023/05/13 00:59:02;;;;;;;;;;;;;;;19.95;46.03;95505.06;10242659;28;2072;-67
2023/05/13 01:04:08;;;;;;;;;;;;;;;19.95;46.00;95502.41;10237770;28;2047;-68
2023/05/13 01:09:12;;;;;;;;;;;;;;;19.94;45.88;95498.25;10233579;28;2019;-67
2023/05/13 01:14:13;;;;;;;;;;;;;;;19.93;45.97;95496.66;10239305;28;2024;-68
2023/05/13 01:19:34;;;;;;;;;;;;;;;19.94;45.89;95492.97;10240385;28;2187;-68
2023/05/13 01:24:35;;;;;;;;;;;;;;;19.93;46.12;95501.91;10237336;28;2353;-68
2023/05/13 01:29:35;;;;;;;;;;;;;;;19.91;45.89;95507.47;10242124;28;2241;-68
2023/05/13 01:34:35;;;;;;;;;;;;;;;19.91;46.09;95509.28;10236777;28;4679;-67
2023/05/13 01:39:36;;;;;;;;;;;;;;;19.90;45.71;95503.28;10234223;28;1973;-68
2023/05/13 01:44:36;;;;;;;;;;;;;;;19.90;45.78;95505.09;10240483;28;1988;-68
2023/05/13 01:49:37;;;;;;;;;;;;;;;19.90;45.86;95503.28;10241505;28;1965;-68
2023/05/13 01:54:37;;;;;;;;;;;;;;;19.91;45.68;95511.94;10239249;28;1987;-68
2023/05/13 01:59:37;;;;;;;;;;;;;;;19.90;45.79;95510.38;10239873;28;1958;-68
2023/05/13 02:04:37;;;;;;;;;;;;;;;19.88;45.94;95504.59;10235473;28;1980;-69
2023/05/13 02:09:38;;;;;;;;;;;;;;;19.87;45.87;95498.53;10235122;28;2218;-68
2023/05/13 02:14:38;;;;;;;;;;;;;;;19.88;45.77;95507.22;10234626;28;2217;-68
2023/05/13 02:19:38;;;;;;;;;;;;;;;19.87;45.70;95509.06;10238595;28;2421;-69
2023/05/13 02:24:39;;;;;;;;;;;;;;;19.85;45.67;95497.25;10221028;28;2006;-68
2023/05/13 02:29:39;;;;;;;;;;;;;;;19.85;45.71;95500.66;10237658;28;2028;-68
2023/05/13 02:34:39;;;;;;;;;;;;;;;19.86;45.71;95507.50;10240134;28;4624;-68
2023/05/13 02:39:40;;;;;;;;;;;;;;;19.85;45.92;95507.75;10236875;28;1984;-68
2023/05/13 02:44:40;;;;;;;;;;;;;;;19.85;45.79;95511.19;10240211;28;2202;-68
2023/05/13 02:49:40;;;;;;;;;;;;;;;19.84;45.58;95509.63;10238008;28;2110;-68
2023/05/13 02:54:41;;;;;;;;;;;;;;;19.84;45.82;95506.22;10246456;28;1973;-67
2023/05/13 02:59:41;;;;;;;;;;;;;;;19.82;45.72;95511.75;10246793;28;1977;-67
2023/05/13 03:04:41;;;;;;;;;;;;;;;19.83;45.47;95508.03;10243854;28;2104;-67
2023/05/13 03:09:42;;;;;;;;;;;;;;;19.82;45.53;95511.75;10245523;28;2026;-67
2023/05/13 03:14:43;;;;;;;;;;;;;;;19.82;45.62;95508.31;10242712;28;2023;-67
2023/05/13 03:19:43;;;;;;;;;;;;;;;19.82;45.66;95510.97;10247116;28;1996;-68
2023/05/13 03:24:44;;;;;;;;;;;;;;;19.81;45.53;95509.38;10242566;28;2065;-68
2023/05/13 03:29:44;;;;;;;;;;;;;;;19.80;45.44;95507.81;10244454;28;1889;-68
2023/05/13 03:34:45;;;;;;;;;;;;;;;19.81;45.45;95514.63;10239547;28;4679;-68
2023/05/13 03:39:45;;;;;;;;;;;;;;;19.81;45.40;95519.91;10246779;28;2005;-68
2023/05/13 03:44:46;;;;;;;;;;;;;;;19.80;45.41;95518.34;10239255;28;1973;-67
2023/05/13 03:49:47;;;;;;;;;;;;;;;19.79;45.62;95529.91;10242432;28;2027;-68
2023/05/13 03:54:47;;;;;;;;;;;;;;;19.78;45.63;95530.97;10248272;28;2194;-68
2023/05/13 03:59:48;;;;;;;;;;;;;;;19.78;45.38;95530.97;10246602;28;2039;-68
2023/05/13 04:04:48;;;;;;;;;;;;;;;19.77;45.30;95532.03;10244277;28;1949;-68
2023/05/13 04:09:48;;;;;;;;;;;;;;;19.78;45.33;95541.50;10237250;28;2304;-68
2023/05/13 04:14:49;;;;;;;;;;;;;;;19.80;45.52;95545.44;10240139;28;1961;-67
2023/05/13 04:19:52;;;;;;;;;;;;;;;19.83;45.30;95538.81;10240125;28;2036;-67
2023/05/13 04:24:55;;;;;;;;;;;;;;;19.89;45.33;95545.59;10241727;28;1917;-68
2023/05/13 04:29:55;;;;;;;;;;;;;;;19.93;45.33;95560.59;10243251;28;1971;-68
2023/05/13 04:34:55;;;;;;;;;;;;;;;19.98;45.26;95560.56;10239284;28;4798;-68
2023/05/13 04:39:56;;;;;;;;;;;;;;;20.04;45.23;95556.84;10245506;28;1934;-67
2023/05/13 04:44:56;;;;;;;;;;;;;;;20.12;45.45;95561.50;10240097;28;2012;-68
2023/05/13 04:49:56;;;;;;;;;;;;;;;20.18;45.17;95570.13;10240575;28;2174;-67
2023/05/13 04:54:56;;;;;;;;;;;;;;;20.25;44.93;95576.72;10240323;28;2253;-67
2023/05/13 04:59:57;;;;;;;;;;;;;;;20.30;44.72;95573.22;10240331;28;2013;-68
2023/05/13 05:04:57;;;;;;;;;;;;;;;20.37;44.84;95581.59;10238807;28;2033;-67
2023/05/13 05:09:57;;;;;;;;;;;;;;;20.41;44.65;95576.56;10240956;28;1937;-68
2023/05/13 05:14:57;;;;;;;;;;;;;;;20.46;44.67;95581.81;10243211;28;1965;-68
2023/05/13 05:19:58;;;;;;;;;;;;;;;20.50;44.41;95580.97;10241176;28;2004;-68
2023/05/13 05:24:58;;;;;;;;;;;;;;;20.53;44.35;95583.03;10236943;28;1933;-68
2023/05/13 05:29:59;;;;;;;;;;;;;;;20.56;44.19;95595.66;10237793;28;1936;-68
2023/05/13 05:35:01;;;;;;;;;;;;;;;20.57;44.44;95605.13;10240657;28;4660;-67
2023/05/13 05:40:01;;;;;;;;;;;;;;;20.62;44.13;95601.66;10238745;28;2006;-67
2023/05/13 05:45:01;;;;;;;;;;;;;;;20.61;44.34;95598.25;10240661;28;2067;-68
2023/05/13 05:50:02;;;;;;;;;;;;;;;20.66;44.24;95600.84;10241129;28;1918;-68
2023/05/13 05:55:02;;;;;;;;;;;;;;;20.66;44.11;95606.13;10239567;28;1967;-68
2023/05/13 06:00:03;;;;;;;;;;;;;;;20.68;44.02;95601.34;10236201;28;2016;-68
2023/05/13 06:05:04;;;;;;;;;;;;;;;20.70;43.99;95612.41;10238001;28;2004;-68
2023/05/13 06:10:05;;;;;;;;;;;;;;;20.74;43.91;95613.41;10235354;28;1924;-68
2023/05/13 06:15:09;;;;;;;;;;;;;;;20.73;43.97;95617.09;10236603;28;1898;-68
2023/05/13 06:20:09;;;;;;;;;;;;;;;20.72;43.83;95610.28;10238761;28;1910;-67
2023/05/13 06:25:10;;;;;;;;;;;;;;;20.74;43.95;95615.25;10234894;28;1903;-68
2023/05/13 06:30:10;;;;;;;;;;;;;;;20.73;43.98;95611.06;10234787;28;1973;-68
2023/05/13 06:35:10;;;;;;;;;;;;;;;20.72;43.71;95620.81;10231588;28;4690;-68
2023/05/13 06:40:11;;;;;;;;;;;;;;;20.72;44.09;95612.91;10232428;28;1936;-68
2023/05/13 06:45:11;;;;;;;;;;;;;;;20.70;43.99;95620.28;10232283;28;1888;-68
2023/05/13 06:50:11;;;;;;;;;;;;;;;20.69;44.12;95623.22;10233090;28;1968;-68
2023/05/13 06:55:12;;;;;;;;;;;;;;;20.66;43.92;95616.66;10231648;28;2043;-68
2023/05/13 07:00:12;;;;;;;;;;;;;;;20.63;44.27;95614.56;10233285;28;2477;-68
2023/05/13 07:05:13;;;;;;;;;;;;;;;20.64;44.19;95618.78;10231686;28;2150;-68
2023/05/13 07:10:13;;;;;;;;;;;;;;;20.60;44.51;95622.22;10225328;28;2071;-68
2023/05/13 07:15:13;;;;;;;;;;;;;;;20.58;44.29;95633.03;10232208;28;1852;-69
2023/05/13 07:20:14;;;;;;;;;;;;;;;20.56;44.39;95629.13;10227588;28;1984;-68
2023/05/13 07:25:14;;;;;;;;;;;;;;;20.56;44.11;95637.81;10234052;28;1902;-68
2023/05/13 07:30:14;;;;;;;;;;;;;;;20.52;44.27;95634.16;10239097;28;1809;-68
2023/05/13 07:35:16;;;;;;;;;;;;;;;20.50;44.39;95644.19;10230389;28;4584;-68
2023/05/13 07:40:16;;;;;;;;;;;;;;;20.50;44.39;95646.00;10240189;28;1971;-68
2023/05/13 07:45:17;;;;;;;;;;;;;;;20.48;44.17;95643.66;10240451;28;1868;-68
2023/05/13 07:50:17;;;;;;;;;;;;;;;20.47;44.32;95638.66;10242317;28;2050;-67
2023/05/13 07:55:17;;;;;;;;;;;;;;;20.47;44.33;95647.34;10236055;28;2057;-66
2023/05/13 08:00:17;;;;;;;;;;;;;;;20.43;44.39;95645.53;10239628;28;1984;-67
2023/05/13 08:05:18;;;;;;;;;;;;;;;20.43;44.35;95653.44;10225700;28;1954;-63
2023/05/13 08:10:18;;;;;;;;;;;;;;;20.43;44.44;95653.44;10240993;28;2003;-63
2023/05/13 08:15:18;;;;;;;;;;;;;;;20.43;44.48;95656.84;10235915;28;2004;-63
2023/05/13 08:20:19;;;;;;;;;;;;;;;20.43;44.51;95654.22;10240178;28;1911;-63
2023/05/13 08:25:20;;;;;;;;;;;;;;;20.43;44.56;95654.22;10238413;28;1886;-63
2023/05/13 08:30:20;;;;;;;;;;;;;;;20.46;44.37;95660.78;10240735;28;2095;-66
2023/05/13 08:35:20;;;;;;;;;;;;;;;20.45;45.03;95662.63;10240188;28;4679;-68
2023/05/13 08:40:21;;;;;;;;;;;;;;;20.46;44.93;95663.44;10239309;29;1929;-67
2023/05/13 08:45:21;;;;;;;;;;;;;;;20.46;45.18;95668.69;10241879;28;1820;-65
2023/05/13 08:50:21;;;;;;;;;;;;;;;20.45;44.78;95661.84;10237848;28;2071;-64
2023/05/13 08:55:22;;;;;;;;;;;;;;;20.43;45.28;95658.69;10240703;28;1840;-65
2023/05/13 09:00:23;;;;;;;;;;;;;;;20.45;45.28;95667.09;10248819;28;1907;-66
2023/05/13 09:05:23;;;;;;;;;;;;;;;20.45;45.40;95665.25;10248142;28;1504;-65
2023/05/13 09:10:23;;;;;;;;;;;;;;;20.45;45.54;95670.53;10248844;28;1561;-65
2023/05/13 09:15:25;;;;;;;;;;;;;;;20.43;45.70;95664.75;10248966;28;1504;-64
2023/05/13 09:20:25;;;;;;;;;;;;;;;20.45;45.48;95672.38;10252289;28;2053;-65
2023/05/13 09:25:25;;;;;;;;;;;;;;;20.45;45.94;95672.38;10245608;28;1813;-65
2023/05/13 09:30:32;;;;;;;;;;;;;;;20.43;45.75;95677.91;10246308;28;1460;-65
2023/05/13 09:35:33;;;;;;;;;;;;;;;20.45;45.72;95672.38;10246481;28;4621;-64
2023/05/13 09:40:33;;;;;;;;;;;;;;;20.44;45.71;95676.06;10249343;28;1911;-65
2023/05/13 09:45:33;;;;;;;;;;;;;;;20.41;45.58;95666.06;10243225;28;2080;-65
2023/05/13 09:50:34;;;;;;;;;;;;;;;20.40;45.71;95664.53;10245700;28;1508;-65
2023/05/13 09:55:34;;;;;;;;;;;;;;;20.36;45.44;95669.53;10242631;28;1555;-65
2023/05/13 10:00:34;;;;;;;;;;;;;;;20.35;45.65;95672.44;10248539;28;1907;-65
2023/05/13 10:05:35;;;;;;;;;;;;;;;20.31;45.60;95666.16;10243339;28;1465;-65
2023/05/13 10:10:35;;;;;;;;;;;;;;;20.29;45.50;95669.06;10244243;28;1453;-65
2023/05/13 10:15:35;;;;;;;;;;;;;;;20.28;45.57;95672.75;10244218;28;1485;-65
2023/05/13 10:20:36;;;;;;;;;;;;;;;20.26;45.58;95670.38;10243862;28;1914;-65
2023/05/13 10:25:37;;;;;;;;;;;;;;;20.25;45.67;95673.31;10245923;28;1504;-65
2023/05/13 10:30:37;;;;;;;;;;;;;;;20.25;45.54;95670.66;10248549;28;1544;-65
2023/05/13 10:35:38;;;;;;;;;;;;;;;20.24;45.43;95666.44;10237535;28;4506;-65
2023/05/13 10:40:47;;;;;;;;;;;;;;;20.22;45.61;95671.19;10241380;28;1980;-65
2023/05/13 10:45:48;;;;;;;;;;;;;;;20.21;45.61;95672.28;10245215;28;2077;-65
2023/05/13 10:50:52;;;;;;;;;;;;;;;20.19;45.48;95675.19;10245002;28;1480;-65
2023/05/13 10:55:59;;;;;;;;;;;;;;;20.18;45.47;95673.56;10242311;28;1658;-65
2023/05/13 11:01:19;;;;;;;;;;;;;;;20.20;45.31;95673.31;10236272;28;1898;-65
2023/05/13 11:06:40;;;;;;;;;;;;;;;20.17;45.38;95677.25;10238651;28;1421;-65
2023/05/13 11:11:40;;;;;;;;;;;;;;;20.15;45.54;95682.00;10240848;28;1465;-65
2023/05/13 11:16:44;;;;;;;;;;;;;;;20.15;45.50;95679.38;10250114;28;1594;-65
2023/05/13 11:21:46;;;;;;;;;;;;;;;20.15;45.46;95681.22;10246281;28;1914;-65
2023/05/13 11:26:56;;;;;;;;;;;;;;;20.15;45.50;95678.59;10240401;28;1689;-65
2023/05/13 11:31:57;;;;;;;;;;;;;;;20.14;45.48;95684.91;10246057;28;1469;-65
2023/05/13 11:37:03;;;;;;;;;;;;;;;20.13;45.54;95691.25;10247284;28;4672;-65
2023/05/13 11:42:09;;;;;;;;;;;;;;;20.14;45.54;95695.44;10248211;28;2097;-65
2023/05/13 11:47:10;;;;;;;;;;;;;;;20.13;45.60;95702.53;10246021;28;1718;-65
2023/05/13 11:52:10;;;;;;;;;;;;;;;20.12;45.56;95689.66;10246037;28;1481;-65
2023/05/13 11:57:17;;;;;;;;;;;;;;;20.12;45.49;95690.44;10237245;28;1902;-65
2023/05/13 12:02:24;;;;;;;;;;;;;;;20.10;45.88;95699.66;10240280;28;1910;-65
2023/05/13 12:07:24;;;;;;;;;;;;;;;20.10;45.94;95699.66;10239531;28;1887;-65
2023/05/13 12:12:25;;;;;;;;;;;;;;;20.09;46.11;95696.25;10242406;28;1911;-64
2023/05/13 12:17:26;;;;;;;;;;;;;;;20.09;46.37;95685.72;10230588;28;1982;-67
2023/05/13 12:22:26;;;;;;;;;;;;;;;20.13;46.42;95696.50;10232537;28;1942;-66
2023/05/13 12:27:26;;;;;;;;;;;;;;;20.12;47.05;95693.09;10234956;28;1940;-67
2023/05/13 12:32:27;;;;;;;;;;;;;;;20.12;46.92;95689.66;10238770;28;1948;-65
2023/05/13 12:37:27;;;;;;;;;;;;;;;20.13;47.31;95696.50;10233774;28;4635;-67
2023/05/13 12:42:27;;;;;;;;;;;;;;;20.08;46.33;95689.41;10236591;28;1915;-66
2023/05/13 12:47:28;;;;;;;;;;;;;;;19.87;44.56;95681.88;10234792;28;1901;-66
2023/05/13 12:52:28;;;;;;;;;;;;;;;19.62;43.73;95677.53;10238458;28;1984;-65
2023/05/13 12:57:28;;;;;;;;;;;;;;;19.39;43.74;95684.16;10237594;28;1981;-65
2023/05/13 13:02:28;;;;;;;;;;;;;;;19.27;43.74;95683.66;10232063;28;1864;-65
2023/05/13 13:07:29;;;;;;;;;;;;;;;19.34;44.22;95699.97;10235143;28;1863;-64
2023/05/13 13:12:29;;;;;;;;;;;;;;;19.41;44.74;95697.81;10238617;28;1918;-64
2023/05/13 13:17:29;;;;;;;;;;;;;;;19.51;44.90;95701.50;10233352;28;2207;-64
2023/05/13 13:22:30;;;;;;;;;;;;;;;19.54;45.17;95698.34;10237264;28;1971;-66
2023/05/13 13:27:31;;;;;;;;;;;;;;;19.57;45.16;95698.59;10237066;28;2126;-66
2023/05/13 13:32:34;;;;;;;;;;;;;;;19.62;45.04;95690.66;10236177;28;2199;-68
2023/05/13 13:37:34;;;;;;;;;;;;;;;19.66;45.16;95683.03;10228921;28;4526;-63
2023/05/13 13:42:34;;;;;;;;;;;;;;;19.69;45.29;95674.59;10236749;28;1924;-64
2023/05/13 13:47:34;;;;;;;;;;;;;;;19.77;45.38;95677.47;10234396;28;1887;-63
2023/05/13 13:52:35;;;;;;;;;;;;;;;19.87;45.52;95672.16;10236777;28;2082;-66
2023/05/13 13:57:35;;;;;;;;;;;;;;;19.95;45.78;95662.91;10233793;28;2218;-66
2023/05/13 14:02:35;;;;;;;;;;;;;;;20.04;45.93;95656.03;10235542;28;1896;-62
2023/05/13 14:07:36;;;;;;;;;;;;;;;20.16;45.82;95653.84;10234605;28;1829;-66
2023/05/13 14:12:36;;;;;;;;;;;;;;;20.21;45.81;95654.66;10233183;28;2121;-64
2023/05/13 14:17:37;;;;;;;;;;;;;;;20.27;45.76;95652.75;10234605;28;1934;-69
2023/05/13 14:22:37;;;;;;;;;;;;;;;20.37;45.89;95651.91;10234722;28;1848;-69
2023/05/13 14:27:37;;;;;;;;;;;;;;;20.42;46.13;95657.13;10234644;28;2379;-70
2023/05/13 14:32:41;;;;;;;;;;;;;;;20.48;46.20;95653.41;10243044;28;1936;-66
2023/05/13 14:37:41;;;;;;;;;;;;;;;20.56;46.03;95652.81;10203845;28;1939;-72
2023/05/13 14:42:41;;;;;;;;;;;;;;;20.59;46.06;95650.41;10231783;28;1891;-67
2023/05/13 14:47:42;;;;;;;;;;;;;;;20.64;46.00;95647.75;10237719;28;1982;-68
2023/05/13 14:52:42;;;;;;;;;;;;;;;20.70;46.11;95645.84;10243534;28;1835;-70
2023/05/13 14:57:42;;;;;;;;;;;;;;;20.77;46.50;95643.69;10247458;28;1915;-69
2023/05/13 15:02:42;;;;;;;;;;;;;;;20.79;46.59;95639.69;10246163;28;1891;-69
2023/05/13 15:07:43;;;;;;;;;;;;;;;20.85;46.47;95629.91;10246993;28;1565;-68
2023/05/13 15:12:43;;;;;;;;;;;;;;;20.87;46.73;95633.84;10244060;28;2023;-68
2023/05/13 15:17:43;;;;;;;;;;;;;;;20.91;46.98;95634.06;10242515;28;1903;-69
2023/05/13 15:22:43;;;;;;;;;;;;;;;20.92;46.79;95631.16;10245907;28;2125;-68
2023/05/13 15:27:44;;;;;;;;;;;;;;;20.96;48.00;95626.91;10235196;28;1910;-64
2023/05/13 15:32:44;;;;;;;;;;;;;;;20.99;47.79;95628.19;10243061;28;1906;-68
2023/05/13 15:37:44;;;;;;;;;;;;;;;21.01;49.37;95633.97;10241554;28;4571;-65
2023/05/13 15:42:46;;;;;;;;;;;;;;;21.01;48.81;95623.44;10242697;28;1870;-67
2023/05/13 15:47:47;;;;;;;;;;;;;;;21.02;48.69;95627.66;10241123;28;1833;-66
2023/05/13 15:52:47;;;;;;;;;;;;;;;21.02;48.69;95625.81;10244389;28;1840;-66
2023/05/13 15:57:47;;;;;;;;;;;;;;;21.01;49.64;95629.50;10239598;28;1911;-67
2023/05/13 16:02:47;;;;;;;;;;;;;;;21.01;49.10;95621.59;10236709;28;1967;-64
2023/05/13 16:07:48;;;;;;;;;;;;;;;21.00;49.62;95616.56;10236749;28;1922;-64
2023/05/13 16:12:48;;;;;;;;;;;;;;;20.97;50.32;95609.25;10244132;28;1867;-64
2023/05/13 16:17:48;;;;;;;;;;;;;;;20.98;49.80;95608.94;10239478;28;1907;-66
2023/05/13 16:22:49;;;;;;;;;;;;;;;20.97;49.97;95609.25;10238044;28;2137;-66
2023/05/13 16:27:49;;;;;;;;;;;;;;;20.92;50.56;95604.00;10237694;28;1903;-67
2023/05/13 16:32:52;;;;;;;;;;;;;;;20.91;50.99;95607.72;10239761;28;1856;-68
2023/05/13 16:37:52;;;;;;;;;;;;;;;20.87;51.08;95606.72;10234085;28;4536;-68
2023/05/13 16:42:53;;;;;;;;;;;;;;;20.90;50.63;95601.66;10240344;28;1861;-65
2023/05/13 16:47:53;;;;;;;;;;;;;;;20.87;50.87;95602.22;10235835;28;1819;-65
2023/05/13 16:52:53;;;;;;;;;;;;;;;20.87;50.62;95589.06;10243855;28;1722;-67
2023/05/13 16:57:53;;;;;;;;;;;;;;;20.84;51.13;95592.25;10234419;28;1946;-68
2023/05/13 17:02:54;;;;;;;;;;;;;;;20.84;51.27;95592.25;10234624;28;1911;-66
2023/05/13 17:07:54;;;;;;;;;;;;;;;20.83;51.50;95590.69;10241200;28;2048;-67
2023/05/13 17:12:55;;;;;;;;;;;;;;;20.84;50.95;95589.59;10217013;28;1909;-68
2023/05/13 17:17:55;;;;;;;;;;;;;;;20.84;50.64;95592.25;10240301;28;1918;-66
2023/05/13 17:22:55;;;;;;;;;;;;;;;20.82;51.32;95583.03;10235185;28;1996;-66
2023/05/13 17:27:56;;;;;;;;;;;;;;;20.80;52.13;95590.44;10235061;28;1907;-68
2023/05/13 17:32:56;;;;;;;;;;;;;;;20.78;52.91;95596.00;10239918;28;1883;-66
2023/05/13 17:37:56;;;;;;;;;;;;;;;20.80;51.90;95591.22;10232432;28;4565;-65
2023/05/13 17:43:01;;;;;;;;;;;;;;;20.83;51.62;95592.53;10240128;28;2006;-65
2023/05/13 17:48:02;;;;;;;;;;;;;;;20.84;51.63;95584.34;10239017;28;1886;-66
2023/05/13 17:53:03;;;;;;;;;;;;;;;20.88;51.85;95593.25;10238767;28;1895;-67
2023/05/13 17:58:03;;;;;;;;;;;;;;;20.86;52.19;95592.75;10234981;28;2034;-70
2023/05/13 18:03:03;;;;;;;;;;;;;;;20.89;51.83;95597.47;10235073;28;1839;-69
2023/05/13 18:08:04;;;;;;;;;;;;;;;20.87;53.39;95594.34;10235277;28;1898;-69
2023/05/13 18:13:04;;;;;;;;;;;;;;;20.90;52.65;95599.03;10238444;28;2046;-73
2023/05/13 18:18:04;;;;;;;;;;;;;;;20.90;52.64;95604.28;10232995;28;1960;-69
2023/05/13 18:23:04;;;;;;;;;;;;;;;20.90;53.17;95606.94;10231842;28;1823;-70
2023/05/13 18:28:05;;;;;;;;;;;;;;;20.90;53.33;95611.41;10237622;28;1890;-70
2023/05/13 18:33:05;;;;;;;;;;;;;;;20.88;53.27;95609.06;10239495;28;1876;-66
2023/05/13 18:38:05;;;;;;;;;;;;;;;20.90;53.18;95606.13;10236394;28;4456;-67
2023/05/13 18:43:05;;;;;;;;;;;;;;;20.88;53.41;95603.78;10240229;28;1500;-68
2023/05/13 18:48:06;;;;;;;;;;;;;;;20.88;53.71;95608.28;10237506;28;1786;-67
2023/05/13 18:53:06;;;;;;;;;;;;;;;20.87;53.52;95620.69;10240894;28;1494;-68
2023/05/13 18:58:06;;;;;;;;;;;;;;;20.85;53.54;95622.81;10240659;28;1985;-70
2023/05/13 19:03:06;;;;;;;;;;;;;;;20.85;54.02;95624.66;10235407;28;1695;-69
2023/05/13 19:08:07;;;;;;;;;;;;;;;20.82;54.48;95631.25;10229351;28;2362;-69
2023/05/13 19:13:07;;;;;;;;;;;;;;;20.81;53.99;95634.94;10234495;28;1839;-69
2023/05/13 19:18:07;;;;;;;;;;;;;;;20.78;53.91;95640.78;10235735;28;1930;-68
2023/05/13 19:23:08;;;;;;;;;;;;;;;20.79;54.15;95642.31;10239485;28;1461;-69
2023/05/13 19:28:08;;;;;;;;;;;;;;;20.78;54.27;95639.97;10232886;28;1521;-69
2023/05/13 19:33:09;;;;;;;;;;;;;;;20.79;54.48;95646.84;10239917;28;1481;-69
2023/05/13 19:38:09;;;;;;;;;;;;;;;20.78;55.60;95655.78;10247136;28;4410;-71
2023/05/13 19:43:09;;;;;;;;;;;;;;;20.77;54.58;95652.34;10252796;28;1472;-72
2023/05/13 19:48:11;;;;;;;;;;;;;;;20.78;55.10;95658.41;10251190;28;1737;-71
2023/05/13 19:53:12;;;;;;;;;;;;;;;20.78;54.96;95655.78;10247809;28;1540;-69
2023/05/13 19:58:12;;;;;;;;;;;;;;;20.77;54.96;95652.34;10252338;28;1967;-70
2023/05/13 20:03:13;;;;;;;;;;;;;;;20.75;54.48;95651.84;10242998;28;1496;-69
2023/05/13 20:08:13;;;;;;;;;;;;;;;20.76;54.66;95652.63;10245780;28;2061;-73
2023/05/13 20:13:14;;;;;;;;;;;;;;;20.73;54.50;95651.34;10251821;28;1493;-70
2023/05/13 20:18:14;;;;;;;;;;;;;;;20.73;54.50;95648.69;10244889;28;1899;-68
2023/05/13 20:23:15;;;;;;;;;;;;;;;20.70;55.46;95651.91;10249240;28;1457;-73
2023/05/13 20:28:15;;;;;;;;;;;;;;;20.69;54.72;95647.69;10247478;28;1618;-69
2023/05/13 20:33:16;;;;;;;;;;;;;;;20.69;54.51;95646.91;10247670;28;1492;-69
2023/05/13 20:38:17;;;;;;;;;;;;;;;20.69;55.14;95647.69;10246869;28;4370;-68
2023/05/13 20:43:17;;;;;;;;;;;;;;;20.71;54.75;95645.56;10246397;28;1511;-70
2023/05/13 20:48:18;;;;;;;;;;;;;;;20.72;54.50;95643.72;10247107;28;1846;-70
2023/05/13 20:53:18;;;;;;;;;;;;;;;20.70;53.99;95638.72;10247178;28;1481;-68
2023/05/13 20:58:18;;;;;;;;;;;;;;;20.69;54.14;95636.38;10250435;28;2304;-69
2023/05/13 21:03:19;;;;;;;;;;;;;;;20.68;54.17;95629.53;10244227;28;2309;-68
2023/05/13 21:08:19;;;;;;;;;;;;;;;20.66;55.06;95623.75;10244343;28;1536;-68
2023/05/13 21:13:19;;;;;;;;;;;;;;;20.64;54.53;95618.78;10246751;28;1496;-68
2023/05/13 21:18:20;;;;;;;;;;;;;;;20.65;54.65;95625.59;10246871;28;1970;-76
2023/05/13 21:23:20;;;;;;;;;;;;;;;20.64;54.29;95624.03;10246773;28;1456;-67
2023/05/13 21:28:21;;;;;;;;;;;;;;;20.64;53.76;95617.97;10246277;28;1556;-72
2023/05/13 21:33:21;;;;;;;;;;;;;;;20.60;54.30;95609.84;10245027;28;1488;-69
2023/05/13 21:38:21;;;;;;;;;;;;;;;20.62;53.74;95615.63;10241919;28;4306;-69
2023/05/13 21:43:22;;;;;;;;;;;;;;;20.61;53.99;95614.03;10242960;28;1541;-69
2023/05/13 21:48:22;;;;;;;;;;;;;;;20.60;54.23;95607.22;10237018;28;1922;-69
2023/05/13 21:53:22;;;;;;;;;;;;;;;20.59;54.56;95610.91;10239849;28;1864;-69
2023/05/13 21:58:22;;;;;;;;;;;;;;;20.58;55.61;95605.91;10237905;28;1958;-68
2023/05/13 22:03:23;;;;;;;;;;;;;;;20.56;54.55;95603.56;10233164;28;1903;-68
2023/05/13 22:08:23;;;;;;;;;;;;;;;20.54;54.48;95597.78;10237114;28;1923;-68
2023/05/13 22:13:24;;;;;;;;;;;;;;;20.52;54.47;95602.56;10237640;28;1886;-68
2023/05/13 22:18:24;;;;;;;;;;;;;;;20.51;54.57;95602.81;10240232;28;1974;-68
2023/05/13 22:23:25;;;;;;;;;;;;;;;20.48;54.76;95606.81;10240672;28;1891;-68
2023/05/13 22:28:25;;;;;;;;;;;;;;;20.43;56.06;95606.03;10236971;28;1871;-69
2023/05/13 22:33:25;;;;;;;;;;;;;;;20.41;55.49;95603.69;10232940;28;1833;-68
2023/05/13 22:38:26;;;;;;;;;;;;;;;20.41;55.04;95608.16;10236928;28;4858;-69
2023/05/13 22:43:26;;;;;;;;;;;;;;;20.37;56.13;95602.66;10235124;28;1973;-69
2023/05/13 22:48:26;;;;;;;;;;;;;;;20.37;55.64;95605.31;10240126;28;1813;-68
2023/05/13 22:53:26;;;;;;;;;;;;;;;20.37;55.45;95607.13;10241877;28;2088;-69
2023/05/13 22:58:27;;;;;;;;;;;;;;;20.34;56.33;95597.94;10237536;28;1932;-69
2023/05/13 23:03:27;;;;;;;;;;;;;;;20.35;55.24;95598.72;10238018;28;1960;-69
2023/05/13 23:08:27;;;;;;;;;;;;;;;20.31;56.28;95593.25;10238258;28;1875;-69
2023/05/13 23:13:27;;;;;;;;;;;;;;;20.31;55.08;95593.25;10241406;28;1937;-69
2023/05/13 23:18:28;;;;;;;;;;;;;;;20.28;55.41;95585.88;10249680;28;1975;-69
2023/05/13 23:23:28;;;;;;;;;;;;;;;20.26;56.05;95580.09;10248814;28;1876;-69
2023/05/13 23:28:29;;;;;;;;;;;;;;;20.25;56.40;95578.56;10251908;28;1819;-69
2023/05/13 23:33:29;;;;;;;;;;;;;;;20.24;55.98;95569.06;10243001;28;1884;-69
2023/05/13 23:38:29;;;;;;;;;;;;;;;20.22;55.75;95573.81;10244666;28;1969;-69
2023/05/13 23:43:29;;;;;;;;;;;;;;;20.21;55.48;95562.53;10242524;28;1906;-69
2023/05/13 23:48:30;;;;;;;;;;;;;;;20.20;55.93;95566.22;10240350;28;2164;-69
2023/05/13 23:53:31;;;;;;;;;;;;;;;20.20;55.72;95570.69;10244407;28;1809;-69
2023/05/13 23:58:31;;;;;;;;;;;;;;;20.18;55.74;95568.31;10244434;28;1976;-69
